.
WxDataArchive / Data Records for 2010-11-09
2010-11-08 November 2010 2010-11-10

Data Records for Tuesday, 09 November 2010

Time	Temp	Chill	HIndex	Humid	Dewpt	 Wind 	HiWind	WindDir	Rain 	Barom 
-----	----	-----	------	-----	-----	------	------	-------	-----	----- 
00:00	37.3	37.3	37.3	75	30.1	0	0	---	0.00	29.996 
00:05	37.0	37.0	37.0	75	29.8	0	0	---	0.00	29.996 
00:10	36.8	36.8	36.8	76	30.0	0	0	---	0.00	29.996 
00:15	36.5	36.5	36.5	76	29.7	0	0	---	0.00	29.994 
00:20	36.3	36.3	36.3	77	29.8	0	0	---	0.00	29.994 
00:25	36.0	36.0	36.0	77	29.5	0	0	---	0.00	29.994 
00:30	35.9	35.9	35.9	78	29.7	0	0	---	0.00	29.997 
00:35	35.6	35.6	35.6	78	29.4	0	0	---	0.00	29.997 
00:40	35.5	35.5	35.5	78	29.3	0	0	---	0.00	29.997 
00:45	35.3	35.3	35.3	79	29.4	0	0	---	0.00	30.001 
00:50	35.2	35.2	35.2	79	29.4	0	0	---	0.00	30.001 
00:55	35.0	35.0	35.0	80	29.5	0	0	---	0.00	30.001 
01:00	35.0	35.0	35.0	81	29.8	0	0	---	0.00	30.000 
01:05	35.0	35.0	35.0	81	29.8	0	0	---	0.00	30.000 
01:10	35.0	35.0	35.0	82	30.1	0	0	---	0.00	30.000 
01:15	35.0	35.0	35.0	83	30.4	0	0	---	0.00	30.000 
01:20	34.9	34.9	34.9	83	30.3	0	0	---	0.00	30.000 
01:25	34.9	34.9	34.9	83	30.3	0	0	---	0.00	30.000 
01:30	34.7	34.7	34.7	83	30.1	0	0	---	0.00	29.994 
01:35	34.6	34.6	34.6	83	30.0	0	0	---	0.00	29.994 
01:40	34.4	34.4	34.4	84	30.1	0	0	---	0.00	29.994 
01:45	34.3	34.3	34.3	84	30.0	0	0	---	0.00	29.993 
01:50	34.3	34.3	34.3	84	30.0	0	0	---	0.00	29.993 
01:55	34.3	34.3	34.3	84	30.0	0	0	---	0.00	29.993 
02:00	34.1	34.1	34.1	84	29.8	0	0	---	0.00	29.992 
02:05	34.1	34.1	34.1	85	30.1	0	0	---	0.00	29.992 
02:10	34.0	34.0	34.0	85	30.0	0	0	---	0.00	29.992 
02:15	34.0	34.0	34.0	85	30.0	0	0	---	0.00	29.993 
02:20	33.8	33.8	33.8	86	30.1	0	0	---	0.00	29.993 
02:25	33.8	33.8	33.8	86	30.1	0	0	---	0.00	29.993 
02:30	33.8	33.8	33.8	86	30.1	0	0	---	0.00	29.996 
02:35	33.8	33.8	33.8	87	30.3	0	0	---	0.00	29.996 
02:40	33.7	33.7	33.7	86	30.0	0	0	---	0.00	29.996 
02:45	33.7	33.7	33.7	87	30.3	0	0	---	0.00	29.997 
02:50	33.7	33.7	33.7	87	30.3	0	0	---	0.00	29.997 
02:55	33.7	33.7	33.7	87	30.3	0	0	---	0.00	29.997 
03:00	33.7	33.7	33.7	87	30.3	0	0	---	0.00	29.996 
03:05	33.7	33.7	33.7	87	30.3	0	0	---	0.00	29.996 
03:10	33.5	33.5	33.5	87	30.1	0	0	---	0.00	29.996 
03:15	33.5	33.5	33.5	87	30.1	0	0	---	0.00	29.993 
03:20	33.5	33.5	33.5	88	30.3	0	0	---	0.00	29.993 
03:25	33.7	33.7	33.7	87	30.3	0	0	---	0.00	29.993 
03:30	33.5	33.5	33.5	87	30.1	0	0	---	0.00	29.998 
03:35	33.5	33.5	33.5	87	30.1	0	0	---	0.00	29.998 
03:40	33.4	33.4	33.4	87	30.0	0	0	---	0.00	29.998 
03:45	33.2	33.2	33.2	86	29.5	0	0	---	0.00	29.995 
03:50	33.1	33.1	33.1	87	29.7	0	0	---	0.00	29.995 
03:55	32.9	32.9	32.9	86	29.2	0	0	---	0.00	29.995 
04:00	32.8	32.8	32.8	87	29.4	0	0	---	0.00	29.994 
04:05	32.8	32.8	32.8	87	29.4	0	0	---	0.00	29.994 
04:10	32.7	32.7	32.7	87	29.3	0	0	---	0.00	29.994 
04:15	32.7	32.7	32.7	87	29.3	0	0	---	0.00	29.995 
04:20	32.7	32.7	32.7	87	29.3	0	0	---	0.00	29.995 
04:25	32.5	32.5	32.5	87	29.1	0	0	---	0.00	29.995 
04:30	32.4	32.4	32.4	87	29.0	0	0	---	0.00	29.996 
04:35	32.4	32.4	32.4	87	29.0	0	0	---	0.00	29.996 
04:40	32.2	32.2	32.2	87	28.8	0	0	---	0.00	29.996 
04:45	32.2	32.2	32.2	87	28.8	0	0	---	0.00	29.999 
04:50	32.2	32.2	32.2	88	29.1	0	0	---	0.00	29.999 
04:55	32.1	32.1	32.1	88	29.0	0	0	---	0.00	29.999 
05:00	32.1	32.1	32.1	88	29.0	0	0	---	0.00	30.002 
05:05	31.9	31.9	31.9	88	28.8	0	0	---	0.00	30.002 
05:10	31.9	31.9	31.9	88	28.8	0	0	---	0.00	30.002 
05:15	31.9	31.9	31.9	88	28.8	0	0	---	0.00	30.012 
05:20	31.8	31.8	31.8	88	28.7	0	0	---	0.00	30.012 
05:25	31.8	31.8	31.8	88	28.7	0	0	---	0.00	30.012 
05:30	31.8	31.8	31.8	88	28.7	0	0	---	0.00	30.013 
05:35	31.6	31.6	31.6	88	28.5	0	0	---	0.00	30.013 
05:40	31.6	31.6	31.6	88	28.5	0	0	---	0.00	30.013 
05:45	31.6	31.6	31.6	88	28.5	0	0	---	0.00	30.018 
05:50	31.6	31.6	31.6	88	28.5	0	0	---	0.00	30.018 
05:55	31.5	31.5	31.5	88	28.4	0	0	---	0.00	30.018 
06:00	31.5	31.5	31.5	88	28.4	0	0	---	0.00	30.019 
06:05	31.3	31.3	31.3	88	28.2	0	0	---	0.00	30.019 
06:10	31.2	31.2	31.2	89	28.3	0	0	---	0.00	30.019 
06:15	31.0	31.0	31.0	89	28.1	0	0	---	0.00	30.027 
06:20	31.0	31.0	31.0	89	28.1	0	0	---	0.00	30.027 
06:25	31.2	31.2	31.2	89	28.3	0	0	---	0.00	30.027 
06:30	31.0	31.0	31.0	89	28.1	0	0	---	0.00	30.030 
06:35	31.0	31.0	31.0	89	28.1	0	0	---	0.00	30.030 
06:40	30.9	30.9	30.9	89	28.0	0	0	---	0.00	30.030 
06:45	30.9	30.9	30.9	90	28.3	0	0	---	0.00	30.032 
06:50	30.9	30.9	30.9	90	28.3	0	0	---	0.00	30.032 
06:55	31.0	31.0	31.0	90	28.4	0	0	---	0.00	30.032 
07:00	31.0	31.0	31.0	90	28.4	0	0	---	0.00	30.036 
07:05	31.0	31.0	31.0	90	28.4	0	0	---	0.00	30.036 
07:10	30.9	30.9	30.9	90	28.3	0	0	---	0.00	30.036 
07:15	30.9	30.9	30.9	91	28.6	0	0	---	0.00	30.042 
07:20	31.0	31.0	31.0	91	28.7	0	0	---	0.00	30.042 
07:25	31.0	31.0	31.0	91	28.7	0	0	---	0.00	30.042 
07:30	31.0	31.0	31.0	91	28.7	0	0	---	0.00	30.044 
07:35	31.0	31.0	31.0	91	28.7	0	0	---	0.00	30.044 
07:40	31.0	31.0	31.0	91	28.7	0	0	---	0.00	30.044 
07:45	31.3	31.3	31.3	91	29.0	0	0	---	0.00	30.044 
07:50	31.8	31.8	31.8	91	29.5	0	0	---	0.00	30.044 
07:55	31.9	31.9	31.9	91	29.6	0	0	---	0.00	30.044 
08:00	32.5	32.5	32.5	92	30.4	0	2	248	0.00	30.052 
08:05	33.5	33.5	33.5	91	31.2	0	2	248	0.00	30.052 
08:10	34.6	34.6	34.6	89	31.7	0	2	248	0.00	30.052 
08:15	35.6	35.6	35.6	86	31.8	0	2	248	0.00	30.047 
08:20	36.5	36.5	36.5	84	32.1	0	2	248	0.00	30.047 
08:25	37.2	37.2	37.2	81	31.9	0	2	248	0.00	30.047 
08:30	37.8	37.8	37.8	79	31.9	1	2	248	0.00	30.051 
08:35	38.5	38.5	38.5	77	31.9	1	2	90	0.00	30.051 
08:40	39.1	39.1	39.1	75	31.9	1	3	90	0.00	30.051 
08:45	39.3	39.3	39.3	75	32.0	0	2	90	0.00	30.055 
08:50	39.3	39.3	39.3	74	31.7	0	1	90	0.00	30.055 
08:55	39.6	39.6	39.6	74	32.0	0	1	90	0.00	30.055 
09:00	40.3	40.3	40.3	73	32.3	0	1	90	0.00	30.055 
09:05	41.3	41.3	41.3	72	33.0	0	2	90	0.00	30.055 
09:10	42.3	42.3	42.3	70	33.2	0	1	90	0.00	30.055 
09:15	43.2	43.2	43.2	68	33.4	0	2	90	0.00	30.053 
09:20	44.1	44.1	44.1	66	33.5	0	1	90	0.00	30.053 
09:25	45.1	45.1	45.1	62	32.9	0	1	90	0.00	30.053 
09:30	45.8	45.8	45.8	62	33.5	0	1	90	0.00	30.051 
09:35	46.0	46.0	46.0	61	33.3	0	1	90	0.00	30.051 
09:40	45.8	45.8	45.8	61	33.1	0	2	90	0.00	30.051 
09:45	46.0	46.0	46.0	61	33.3	0	1	90	0.00	30.052 
09:50	46.2	46.2	46.2	61	33.5	0	1	90	0.00	30.052 
09:55	46.5	46.5	46.5	59	33.0	0	1	90	0.00	30.052 
10:00	47.0	47.0	47.0	59	33.4	0	1	90	0.00	30.050 
10:05	47.6	47.6	47.6	58	33.6	0	1	90	0.00	30.050 
10:10	48.2	48.2	48.2	57	33.7	0	1	90	0.00	30.050 
10:15	48.8	48.8	48.8	56	33.8	0	1	90	0.00	30.056 
10:20	49.5	49.5	49.5	55	34.0	0	0	---	0.00	30.056 
10:25	50.1	50.1	50.1	53	33.6	0	1	90	0.00	30.056 
10:30	50.7	50.7	50.7	53	34.2	0	1	90	0.00	30.058 
10:35	51.3	51.3	51.3	52	34.3	0	0	---	0.00	30.058 
10:40	51.9	51.9	51.9	49	33.3	0	2	90	0.00	30.058 
10:45	52.6	52.6	52.6	47	32.9	0	2	90	0.00	30.055 
10:50	53.2	53.2	53.2	47	33.5	0	1	90	0.00	30.055 
10:55	53.6	53.6	53.6	46	33.3	0	1	90	0.00	30.055 
11:00	54.2	54.2	54.2	45	33.3	0	1	90	0.00	30.054 
11:05	54.8	54.8	54.8	44	33.3	0	1	90	0.00	30.054 
11:10	55.4	55.4	55.4	43	33.3	0	1	90	0.00	30.054 
11:15	55.9	55.9	55.9	43	33.7	0	0	---	0.00	30.055 
11:20	56.5	56.5	56.5	42	33.7	0	0	---	0.00	30.055 
11:25	56.9	56.9	56.9	39	32.2	0	1	90	0.00	30.055 
11:30	57.3	57.3	57.3	39	32.6	0	2	90	0.00	30.049 
11:35	57.6	57.6	57.6	38	32.2	1	3	90	0.00	30.049 
11:40	57.8	57.8	57.8	39	33.0	0	2	90	0.00	30.049 
11:45	58.3	58.3	58.3	38	32.8	0	3	90	0.00	30.044 
11:50	58.7	58.7	58.7	38	33.2	1	3	90	0.00	30.044 
11:55	59.3	59.3	59.3	36	32.4	2	4	90	0.00	30.044 
12:00	59.6	59.6	59.6	35	31.9	1	4	90	0.00	30.042 
12:05	59.9	59.9	59.9	36	32.9	1	4	90	0.00	30.042 
12:10	60.1	60.1	60.1	36	33.1	2	6	90	0.00	30.042 
12:15	60.4	60.4	60.4	36	33.3	1	5	68	0.00	30.042 
12:20	60.7	60.7	60.7	36	33.6	1	4	112	0.00	30.042 
12:25	61.0	61.0	61.0	34	32.4	2	5	90	0.00	30.042 
12:30	61.3	61.3	61.3	34	32.7	3	5	112	0.00	30.032 
12:35	61.6	61.6	61.6	34	33.0	1	3	112	0.00	30.032 
12:40	62.1	62.1	62.1	33	32.7	3	6	90	0.00	30.032 
12:45	62.3	62.3	62.3	33	32.8	2	5	90	0.00	30.027 
12:50	62.4	62.4	62.4	33	32.9	2	5	112	0.00	30.027 
12:55	62.9	62.9	62.9	32	32.6	2	5	112	0.00	30.027 
13:00	63.2	63.2	63.2	32	32.9	2	5	90	0.00	30.024 
13:05	63.5	63.5	63.5	31	32.3	1	5	90	0.00	30.024 
13:10	63.9	63.9	63.9	30	31.9	2	7	90	0.00	30.024 
13:15	64.2	64.2	64.2	29	31.3	2	5	112	0.00	30.022 
13:20	64.7	64.7	64.7	28	30.8	1	4	112	0.00	30.022 
13:25	65.2	65.2	65.2	28	31.3	1	4	112	0.00	30.022 
13:30	65.5	65.5	65.5	27	30.6	2	6	90	0.00	30.021 
13:35	65.6	65.6	65.6	27	30.7	1	3	112	0.00	30.021 
13:40	66.1	66.1	66.1	27	31.1	0	2	112	0.00	30.021 
13:45	66.4	66.4	66.4	28	32.3	3	6	90	0.00	30.021 
13:50	66.3	66.3	66.3	27	31.3	3	5	112	0.00	30.021 
13:55	66.4	66.4	66.4	27	31.4	2	7	90	0.00	30.021 
14:00	66.6	66.6	66.6	27	31.6	2	7	90	0.00	30.018 
14:05	66.8	66.8	66.8	27	31.7	1	3	135	0.00	30.018 
14:10	67.1	67.1	67.1	26	31.1	2	6	90	0.00	30.018 
14:15	67.1	67.1	67.1	26	31.1	2	5	68	0.00	30.016 
14:20	67.1	67.1	67.1	26	31.1	1	6	112	0.00	30.016 
14:25	66.9	66.9	66.9	26	30.9	1	4	90	0.00	30.016 
14:30	66.9	66.9	66.9	26	30.9	2	7	112	0.00	30.013 
14:35	66.9	66.9	66.9	26	30.9	1	6	112	0.00	30.013 
14:40	67.3	67.3	67.3	26	31.2	1	3	112	0.00	30.013 
14:45	67.4	67.4	67.4	25	30.4	1	4	90	0.00	30.014 
14:50	67.4	67.4	67.4	26	31.3	1	3	112	0.00	30.014 
14:55	67.6	67.6	67.6	26	31.5	1	4	90	0.00	30.014 
15:00	67.6	67.6	67.6	25	30.5	2	7	112	0.00	30.014 
15:05	67.8	67.8	67.8	26	31.7	1	4	90	0.00	30.014 
15:10	67.8	67.8	67.8	25	30.7	0	2	112	0.00	30.014 
15:15	67.8	67.8	67.8	25	30.7	2	6	112	0.00	30.015 
15:20	67.6	67.6	67.6	25	30.5	2	5	68	0.00	30.015 
15:25	67.6	67.6	67.6	25	30.5	2	5	112	0.00	30.015 
15:30	67.4	67.4	67.4	25	30.4	2	6	112	0.00	30.017 
15:35	67.4	67.4	67.4	26	31.3	1	3	112	0.00	30.017 
15:40	67.4	67.4	67.4	25	30.4	1	4	112	0.00	30.017 
15:45	67.4	67.4	67.4	26	31.3	1	4	90	0.00	30.019 
15:50	67.4	67.4	67.4	25	30.4	2	5	90	0.00	30.019 
15:55	67.3	67.3	67.3	25	30.3	2	6	90	0.00	30.019 
16:00	67.3	67.3	67.3	26	31.2	0	2	68	0.00	30.022 
16:05	67.3	67.3	67.3	26	31.2	0	2	68	0.00	30.022 
16:10	67.3	67.3	67.3	26	31.2	0	3	68	0.00	30.022 
16:15	67.1	67.1	67.1	26	31.1	0	2	68	0.00	30.023 
16:20	66.9	66.9	66.9	27	31.8	1	2	135	0.00	30.023 
16:25	66.8	66.8	66.8	26	30.8	1	4	135	0.00	30.023 
16:30	66.6	66.6	66.6	27	31.6	0	3	68	0.00	30.024 
16:35	66.3	66.3	66.3	27	31.3	0	3	68	0.00	30.024 
16:40	66.1	66.1	66.1	27	31.1	0	2	68	0.00	30.024 
16:45	66.0	66.0	66.0	28	32.0	0	1	68	0.00	30.022 
16:50	65.6	65.6	65.6	28	31.6	0	1	68	0.00	30.022 
16:55	65.5	65.5	65.5	27	30.6	0	0	---	0.00	30.022 
17:00	65.2	65.2	65.2	27	30.4	0	0	---	0.00	30.025 
17:05	64.7	64.7	64.7	28	30.8	0	0	---	0.00	30.025 
17:10	64.3	64.3	64.3	29	31.4	0	0	---	0.00	30.025 
17:15	63.7	63.7	63.7	29	30.8	0	0	---	0.00	30.026 
17:20	63.2	63.2	63.2	30	31.3	0	0	---	0.00	30.026 
17:25	62.6	62.6	62.6	31	31.5	0	0	---	0.00	30.026 
17:30	61.8	61.8	61.8	34	33.1	0	0	---	0.00	30.029 
17:35	60.9	60.9	60.9	34	32.3	0	0	---	0.00	30.029 
17:40	60.1	60.1	60.1	35	32.4	0	0	---	0.00	30.029 
17:45	59.2	59.2	59.2	37	32.9	0	0	---	0.00	30.035 
17:50	58.3	58.3	58.3	37	32.1	0	0	---	0.00	30.035 
17:55	57.5	57.5	57.5	39	32.7	0	0	---	0.00	30.035 
18:00	56.9	56.9	56.9	40	32.8	0	0	---	0.00	30.043 
18:05	56.5	56.5	56.5	41	33.1	0	0	---	0.00	30.043 
18:10	55.9	55.9	55.9	41	32.5	0	0	---	0.00	30.043 
18:15	55.6	55.6	55.6	41	32.3	0	0	---	0.00	30.047 
18:20	55.4	55.4	55.4	41	32.1	0	1	68	0.00	30.047 
18:25	55.3	55.3	55.3	41	32.0	0	1	68	0.00	30.047 
18:30	55.3	55.3	55.3	41	32.0	0	1	68	0.00	30.050 
18:35	55.1	55.1	55.1	41	31.8	0	0	---	0.00	30.050 
18:40	54.8	54.8	54.8	42	32.2	0	1	68	0.00	30.050 
18:45	54.5	54.5	54.5	42	31.9	0	0	---	0.00	30.051 
18:50	54.2	54.2	54.2	43	32.2	0	0	---	0.00	30.051 
18:55	53.8	53.8	53.8	43	31.8	0	0	---	0.00	30.051 
19:00	53.3	53.3	53.3	43	31.4	0	0	---	0.00	30.058 
19:05	53.1	53.1	53.1	44	31.8	0	0	---	0.00	30.058 
19:10	52.6	52.6	52.6	45	31.9	0	0	---	0.00	30.058 
19:15	52.5	52.5	52.5	46	32.3	0	1	68	0.00	30.059 
19:20	52.3	52.3	52.3	45	31.6	0	1	68	0.00	30.059 
19:25	52.2	52.2	52.2	45	31.5	0	0	---	0.00	30.059 
19:30	51.9	51.9	51.9	46	31.8	0	0	---	0.00	30.065 
19:35	51.4	51.4	51.4	46	31.3	0	0	---	0.00	30.065 
19:40	51.1	51.1	51.1	46	31.0	0	0	---	0.00	30.065 
19:45	50.7	50.7	50.7	47	31.2	0	0	---	0.00	30.065 
19:50	50.4	50.4	50.4	48	31.5	0	0	---	0.00	30.065 
19:55	50.1	50.1	50.1	49	31.7	0	1	68	0.00	30.065 
20:00	50.4	50.4	50.4	48	31.5	0	1	68	0.00	30.068 
20:05	50.5	50.5	50.5	48	31.5	0	1	68	0.00	30.068 
20:10	50.8	50.8	50.8	47	31.3	0	2	68	0.00	30.068 
20:15	51.1	51.1	51.1	46	31.0	1	3	68	0.00	30.062 
20:20	51.7	51.7	51.7	46	31.6	2	5	68	0.00	30.062 
20:25	52.2	52.2	52.2	46	32.1	1	3	68	0.00	30.062 
20:30	52.0	52.0	52.0	47	32.4	1	3	68	0.00	30.064 
20:35	51.7	51.7	51.7	49	33.2	1	3	90	0.00	30.064 
20:40	51.4	51.4	51.4	50	33.4	1	3	90	0.00	30.064 
20:45	51.1	51.1	51.1	51	33.6	1	2	90	0.00	30.069 
20:50	50.8	50.8	50.8	54	34.8	2	6	90	0.00	30.069 
20:55	50.7	50.7	50.7	54	34.7	1	5	112	0.00	30.069 
21:00	50.2	50.2	50.2	55	34.7	0	2	90	0.00	30.077 
21:05	49.8	49.8	49.8	56	34.7	0	2	90	0.00	30.077 
21:10	49.4	49.4	49.4	56	34.4	0	1	90	0.00	30.077 
21:15	48.9	48.9	48.9	58	34.8	1	4	90	0.00	30.073 
21:20	48.6	48.6	48.6	59	34.9	1	3	90	0.00	30.073 
21:25	48.5	48.5	48.5	60	35.3	1	2	112	0.00	30.073 
21:30	48.2	48.2	48.2	61	35.4	1	2	112	0.00	30.077 
21:35	48.0	48.0	48.0	62	35.6	1	3	112	0.00	30.077 
21:40	47.7	47.7	47.7	62	35.3	1	4	112	0.00	30.077 
21:45	47.6	47.6	47.6	63	35.6	1	3	112	0.00	30.082 
21:50	47.4	47.4	47.4	63	35.4	1	3	90	0.00	30.082 
21:55	47.1	47.1	47.1	63	35.2	1	3	90	0.00	30.082 
22:00	46.8	46.8	46.8	64	35.3	0	2	90	0.00	30.086 
22:05	46.5	46.5	46.5	64	35.0	0	1	90	0.00	30.086 
22:10	46.2	46.2	46.2	65	35.1	0	2	90	0.00	30.086 
22:15	45.8	45.8	45.8	66	35.1	0	2	90	0.00	30.084 
22:20	45.5	45.5	45.5	66	34.8	0	2	90	0.00	30.084 
22:25	45.2	45.2	45.2	67	34.9	0	1	90	0.00	30.084 
22:30	44.9	44.9	44.9	68	35.0	0	1	90	0.00	30.086 
22:35	44.6	44.6	44.6	68	34.7	0	1	90	0.00	30.086 
22:40	44.3	44.3	44.3	69	34.8	0	0	---	0.00	30.086 
22:45	44.1	44.1	44.1	69	34.6	0	0	---	0.00	30.087 
22:50	43.8	43.8	43.8	70	34.7	0	0	---	0.00	30.087 
22:55	43.5	43.5	43.5	72	35.1	0	1	90	0.00	30.087 
23:00	43.3	43.3	43.3	72	34.9	0	1	90	0.00	30.088 
23:05	43.2	43.2	43.2	73	35.1	0	1	90	0.00	30.088 
23:10	43.1	43.1	43.1	73	35.0	0	1	90	0.00	30.088 
23:15	42.9	42.9	42.9	73	34.9	0	2	90	0.00	30.083 
23:20	42.9	42.9	42.9	73	34.9	0	1	90	0.00	30.083 
23:25	42.8	42.8	42.8	74	35.1	0	1	90	0.00	30.083 
23:30	42.6	42.6	42.6	74	34.9	0	2	90	0.00	30.083 
23:35	42.5	42.5	42.5	74	34.8	0	0	---	0.00	30.083 
23:40	42.3	42.3	42.3	75	35.0	0	2	90	0.00	30.083 
23:45	42.2	42.2	42.2	76	35.2	0	1	90	0.00	30.084 
23:50	42.1	42.1	42.1	76	35.1	0	1	90	0.00	30.084 
23:55	42.1	42.1	42.1	77	35.4	0	3	90	0.00	30.084 

CoCoRaHS
IN-AL-39
A2 Web Hosting
Creative Commons License
GoDaddy
search engine by freefind advanced

loaded 2018-11-17 13:10:15 • last modified 2010-11-18 10:43:29
Privacy PolicyDisclaimer
• wx.awcolley.com is powered by PmWiki v.2002016 •
• all content (unless otherwise noted) © 2018 A W Colley